Ketchikan International Airport Ketchikan US
ICAO: PAKT
IATA: KTN
Category: Medium
Scheduled Services:

Elevation: 89 ft
TransAlt. 18000 ft.

Airport Communications:
ATIS:119.9
ANCHORAGE CNTR:118.5
CTAF:123.6
RDO:123.6
UNICOM:122.95

PAKT Zoom In..

If Map Doesn't Load, Click Here

Runways:

(A) RW 11 length 7500 ft width 150 ft
ILS 109.30 / hdg 115

(B) RW 29 length 7500 ft width 150 ft
---- / hdg 295

Location; PAKT
Day. 21 / Time. 14.10 Zulu
* Altimeter: 29.96
* Temperature: 08° c. 46.4°f.
* Wind from: PAK° Speed T kn.
Dewpoint: 06° c.
Visibility: 10 Statute Miles.
Clouds: Clear (automated report).

PAKT 211410Z 32007KT 10SM CLR 08/06 A2996 RMK AO2 T00830061


Wind From PAK°
Speed T kn.

 
 
jpsmedia.com for Web Design worldairports.se 2018   terms of use